createdAt,value
2024-03-16T00:01:22.369Z,8.96
2024-03-16T00:03:49.282Z,8.88
2024-03-16T00:06:15.966Z,8.82
2024-03-16T00:08:42.665Z,8.78
2024-03-16T00:11:09.398Z,8.76
2024-03-16T00:13:37.496Z,8.69
2024-03-16T00:16:05.566Z,8.64
2024-03-16T00:18:32.520Z,8.60
2024-03-16T00:20:59.385Z,8.55
2024-03-16T00:23:26.070Z,8.50
2024-03-16T00:25:52.800Z,8.46
2024-03-16T00:28:19.511Z,8.46
2024-03-16T00:30:46.200Z,8.51
2024-03-16T00:33:14.089Z,8.59
2024-03-16T00:35:41.421Z,8.66
2024-03-16T00:38:08.393Z,8.68
2024-03-16T00:40:35.212Z,8.66
2024-03-16T00:43:03.214Z,8.61
2024-03-16T00:45:30.135Z,8.54
2024-03-16T00:47:57.700Z,8.55
2024-03-16T00:50:24.609Z,8.55
2024-03-16T00:52:52.205Z,8.61
2024-03-16T00:55:19.655Z,8.63
2024-03-16T00:57:46.409Z,8.58
2024-03-16T01:00:15.835Z,8.54
2024-03-16T01:02:42.833Z,8.51
2024-03-16T01:05:09.766Z,8.55
2024-03-16T01:07:36.547Z,8.61
2024-03-16T01:10:03.686Z,8.61
2024-03-16T01:12:30.553Z,8.62
2024-03-16T01:14:58.487Z,8.64
2024-03-16T01:17:25.332Z,8.64
2024-03-16T01:19:52.075Z,8.64
2024-03-16T01:22:18.822Z,8.69
2024-03-16T01:24:45.611Z,8.59
2024-03-16T01:27:12.456Z,8.50
2024-03-16T01:29:39.646Z,8.45
2024-03-16T01:32:09.674Z,8.42
2024-03-16T01:34:37.076Z,8.40
2024-03-16T01:37:04.018Z,8.37
2024-03-16T01:39:33.597Z,8.35
2024-03-16T01:42:00.582Z,8.33
2024-03-16T01:44:27.348Z,8.37
2024-03-16T01:46:54.096Z,8.34
2024-03-16T01:49:20.787Z,8.36
2024-03-16T01:51:47.381Z,8.36
2024-03-16T01:54:14.432Z,8.37
2024-03-16T01:56:41.158Z,8.31
2024-03-16T01:59:07.878Z,8.26
2024-03-16T02:01:34.698Z,8.26
2024-03-16T02:04:01.519Z,8.22
2024-03-16T02:06:30.164Z,8.28
2024-03-16T02:08:58.103Z,8.27
2024-03-16T02:11:25.045Z,8.28
2024-03-16T02:13:52.363Z,8.35
2024-03-16T02:16:19.166Z,8.34
2024-03-16T02:18:46.205Z,8.41
2024-03-16T02:21:12.983Z,8.42
2024-03-16T02:23:41.089Z,8.43
2024-03-16T02:26:08.919Z,8.44
2024-03-16T02:28:35.836Z,8.52
2024-03-16T02:31:03.014Z,8.54
2024-03-16T02:33:30.072Z,8.54
2024-03-16T02:35:57.057Z,8.55
2024-03-16T02:38:24.218Z,8.56
2024-03-16T02:40:53.567Z,8.55
2024-03-16T02:43:20.683Z,8.48
2024-03-16T02:45:47.937Z,8.53
2024-03-16T02:48:14.846Z,8.51
2024-03-16T02:50:41.506Z,8.47
2024-03-16T02:53:09.615Z,8.50
2024-03-16T02:55:36.857Z,8.49
2024-03-16T02:58:03.775Z,8.45
2024-03-16T03:00:30.558Z,8.43
2024-03-16T03:02:58.711Z,8.41
2024-03-16T03:05:25.465Z,8.42
2024-03-16T03:07:52.181Z,8.39
2024-03-16T03:10:19.418Z,8.35
2024-03-16T03:12:47.096Z,8.31
2024-03-16T03:15:14.567Z,8.36
2024-03-16T03:17:41.305Z,8.36
2024-03-16T03:20:10.334Z,8.50
2024-03-16T03:22:37.514Z,8.59
2024-03-16T03:25:05.073Z,8.66
2024-03-16T03:27:32.114Z,8.70
2024-03-16T03:29:58.953Z,8.79
2024-03-16T03:32:25.753Z,8.85
2024-03-16T03:34:52.483Z,8.87
2024-03-16T03:37:19.233Z,8.90
2024-03-16T03:39:47.930Z,8.92
2024-03-16T03:42:15.948Z,8.90
2024-03-16T03:44:51.527Z,8.84
2024-03-16T03:47:18.377Z,8.74
2024-03-16T03:49:52.095Z,8.69
2024-03-16T03:52:19.210Z,8.63
2024-03-16T03:54:46.057Z,8.54
2024-03-16T03:57:12.876Z,8.45
2024-03-16T03:59:39.544Z,8.41
2024-03-16T04:02:06.357Z,8.35
2024-03-16T04:04:32.999Z,8.30
2024-03-16T04:06:59.736Z,8.33
2024-03-16T04:09:26.478Z,8.38
2024-03-16T04:11:53.089Z,8.47
2024-03-16T04:14:20.702Z,8.59
2024-03-16T04:16:48.880Z,8.67
2024-03-16T04:19:17.531Z,8.76
2024-03-16T04:21:45.055Z,8.72
2024-03-16T04:24:11.921Z,8.67
2024-03-16T04:26:39.103Z,8.59
2024-03-16T04:29:07.162Z,8.52
2024-03-16T04:31:34.063Z,8.47
2024-03-16T04:34:00.965Z,8.44
2024-03-16T04:36:27.707Z,8.43
2024-03-16T04:38:54.416Z,8.44
2024-03-16T04:41:21.185Z,8.42
2024-03-16T04:43:48.592Z,8.41
2024-03-16T04:46:15.491Z,8.31
2024-03-16T04:48:42.187Z,8.21
2024-03-16T04:51:08.920Z,8.18
2024-03-16T04:53:35.465Z,8.11
2024-03-16T04:56:02.450Z,8.10
2024-03-16T04:58:29.200Z,8.23
2024-03-16T05:00:55.872Z,8.32
2024-03-16T05:03:22.513Z,8.43
2024-03-16T05:05:51.772Z,8.53
2024-03-16T05:08:18.389Z,8.65
2024-03-16T05:10:51.405Z,8.75
2024-03-16T05:13:18.168Z,8.84
2024-03-16T05:15:44.908Z,8.92
2024-03-16T05:18:13.777Z,8.97
2024-03-16T05:20:40.446Z,9.03
2024-03-16T05:23:07.077Z,9.09
2024-03-16T05:25:33.648Z,9.13
2024-03-16T05:28:00.483Z,9.16
2024-03-16T05:30:27.355Z,9.17
2024-03-16T05:32:54.116Z,9.24
2024-03-16T05:35:20.861Z,9.29
2024-03-16T05:37:47.463Z,9.35
2024-03-16T05:40:14.141Z,9.40
2024-03-16T05:42:41.398Z,9.42
2024-03-16T05:45:08.596Z,9.45
2024-03-16T05:47:35.284Z,9.46
2024-03-16T05:50:02.004Z,9.47
2024-03-16T05:52:28.594Z,9.48
2024-03-16T05:54:55.976Z,9.55
2024-03-16T05:57:23.215Z,9.59
2024-03-16T05:59:49.965Z,9.65
2024-03-16T06:02:16.669Z,9.76
2024-03-16T06:04:43.530Z,9.83
2024-03-16T06:07:10.333Z,9.89
2024-03-16T06:09:37.169Z,9.96
2024-03-16T06:12:04.206Z,10.07
2024-03-16T06:14:30.846Z,10.09
2024-03-16T06:16:58.271Z,10.04
2024-03-16T06:19:24.933Z,10.10
2024-03-16T06:21:51.850Z,10.07
2024-03-16T06:24:18.752Z,10.05
2024-03-16T06:26:53.653Z,10.10
2024-03-16T06:29:27.143Z,10.16
2024-03-16T06:31:55.340Z,10.21
2024-03-16T06:34:22.013Z,10.22
2024-03-16T06:36:49.928Z,10.26
2024-03-16T06:39:22.752Z,10.24
2024-03-16T06:41:50.979Z,10.21
2024-03-16T06:44:18.477Z,10.08
2024-03-16T06:46:45.010Z,9.97
2024-03-16T06:49:12.136Z,9.81
2024-03-16T06:51:38.759Z,9.72
2024-03-16T06:54:05.554Z,9.62
2024-03-16T06:56:32.457Z,9.49
2024-03-16T06:59:00.548Z,9.36
2024-03-16T07:01:27.384Z,9.22
2024-03-16T07:03:54.165Z,9.06
2024-03-16T07:06:21.018Z,8.93
2024-03-16T07:08:47.740Z,8.84
2024-03-16T07:11:14.454Z,8.73
2024-03-16T07:13:41.223Z,8.64
2024-03-16T07:16:13.018Z,8.53
2024-03-16T07:18:39.670Z,8.44
2024-03-16T07:21:06.442Z,8.32
2024-03-16T07:23:33.014Z,8.22
2024-03-16T07:25:59.857Z,8.09
2024-03-16T07:28:26.669Z,8.04
2024-03-16T07:30:59.799Z,7.98
2024-03-16T07:33:26.661Z,7.86
2024-03-16T07:35:53.493Z,7.77
2024-03-16T07:38:20.736Z,7.71
2024-03-16T07:40:48.319Z,7.66
2024-03-16T07:43:15.112Z,7.61
2024-03-16T07:45:43.999Z,7.57
2024-03-16T07:48:11.031Z,7.53
2024-03-16T07:50:37.840Z,7.49
2024-03-16T07:53:04.826Z,7.49
2024-03-16T07:55:31.934Z,7.46
2024-03-16T07:57:58.629Z,7.25
2024-03-16T08:00:25.388Z,7.07
2024-03-16T08:02:52.122Z,6.89
2024-03-16T08:05:19.384Z,6.76
2024-03-16T08:07:48.537Z,6.66
2024-03-16T08:10:15.244Z,6.59
2024-03-16T08:12:42.724Z,6.52
2024-03-16T08:15:10.616Z,6.47
2024-03-16T08:17:37.338Z,6.45
2024-03-16T08:20:05.953Z,6.47
2024-03-16T08:22:32.637Z,6.46
2024-03-16T08:24:59.452Z,6.47
2024-03-16T08:27:32.059Z,6.47
2024-03-16T08:30:00.951Z,6.45
2024-03-16T08:32:27.692Z,6.39
2024-03-16T08:34:55.980Z,6.31
2024-03-16T08:37:22.966Z,6.23
2024-03-16T08:39:49.848Z,6.26
2024-03-16T08:42:16.819Z,6.28
2024-03-16T08:44:43.568Z,6.32
2024-03-16T08:47:10.456Z,6.30
2024-03-16T08:49:37.176Z,6.42
2024-03-16T08:52:05.045Z,6.51
2024-03-16T08:54:33.778Z,6.45
2024-03-16T08:57:01.274Z,6.47
2024-03-16T08:59:29.293Z,6.51
2024-03-16T09:01:56.198Z,6.46
2024-03-16T09:04:23.005Z,6.47
2024-03-16T09:06:49.778Z,6.44
2024-03-16T09:09:17.674Z,6.43
2024-03-16T09:11:44.830Z,6.46
2024-03-16T09:14:11.976Z,6.47
2024-03-16T09:16:42.244Z,6.49
2024-03-16T09:19:09.170Z,6.49
2024-03-16T09:21:36.492Z,6.50
2024-03-16T09:24:03.931Z,6.55
2024-03-16T09:26:30.750Z,6.58
2024-03-16T09:28:57.600Z,6.57
2024-03-16T09:31:27.248Z,6.65
2024-03-16T09:33:54.252Z,6.72
2024-03-16T09:36:21.243Z,6.81
2024-03-16T09:38:48.981Z,6.96
2024-03-16T09:41:19.959Z,7.07
